Airfield :
LOGIN :

Register | Disclaimer

   EN    FR    IT 

 










Legend :    VFR   Marginal VFR   IFR   Intensive IFR   Very Intensive IFR
Visi :
Ceiling :
>= 8 km
>= 3000ft
5 to 8 km
1000 to 3000 ft
1500m to 5 km
500 to 1000 ft
800 to 1500m
200 to 500 ft
< 800m
< 200 ft
Symbols :   Thunderstorms  Fog  Heavy snow  Heavy precipitations  Wind > 20 kt
SIGMETs :     Misc.  Thunderstorms  Icing  Turbulence  Mountain Waves  Volcanic Ashes






- Airport Elevation : 412 ft
- IATA code : ORE


LFOJ - Orleans

CURRENT METAR :
  • 270600Z AUTO 30012KT 9999 -RA OVC025/// ///TCU 10/07 Q1007 BECMG 31015G25KT OVC040

EXPIRED METARs :
  • 270530Z AUTO 29013KT 9999 BKN026/// BKN035/// OVC042/// ///TCU 10/08 Q1007 BECMG 31015G25KT OVC040
  • 270500Z AUTO 29014KT 9999 OVC043 10/08 Q1006
  • 270430Z AUTO 30016KT 9999 FEW016 SCT036 OVC043 10/08 Q1007
  • 270400Z AUTO 30016KT 9999 -RA BKN018/// OVC029/// ///TCU 10/08 Q1007
  • 270330Z AUTO 29016KT 9999 -RA BKN016/// OVC022/// ///TCU 10/08 Q1007

TAF AMD TAF LFOJ
Valid from the 27 at 05:00 until the 28 at 03:00 UTC


270500Z 2705/2803 31015G25KT 9999 OVC040
BECMG 2708/2710 30020G35KT 4000 RA OVC014
BECMG 2712/2713 7000 NSW
PROB40
TEMPO 2710/2715 BKN010
TEMPO 2715/2718 BKN006
BECMG 2718/2720 32015G25KT OVC008
PROB40
TEMPO 2722/2803 -RADZ BKN005



MET'MAP, your aeronautical weather chart ! - Copyright ORBIFLY December 2007 - Disclaimer

ORBIFLY MET'MAP TEAM :

Programming & Development : Alexandra Zaïnal
Concept & original design : Baudouin d'Aumeries
Assistance for programming : Marc-Olivier Méhu
Technical & hardware support : Manuel Goepfert

Contact : metmap@orbifly.com




SOURCES & CREDITS :

   NOAA